createdAt,value
2024-02-03T00:02:41.926Z,8.50
2024-02-03T00:06:44.036Z,8.40
2024-02-03T00:10:46.028Z,8.40
2024-02-03T00:14:48.329Z,8.50
2024-02-03T00:18:50.388Z,8.50
2024-02-03T00:22:52.865Z,8.40
2024-02-03T00:26:55.015Z,8.50
2024-02-03T00:30:56.937Z,8.50
2024-02-03T00:34:59.024Z,8.50
2024-02-03T00:39:02.515Z,8.50
2024-02-03T00:43:04.899Z,8.50
2024-02-03T00:47:07.655Z,8.50
2024-02-03T00:51:13.668Z,8.50
2024-02-03T00:55:15.885Z,6.70
2024-02-03T00:59:17.682Z,8.50
2024-02-03T01:03:19.606Z,8.70
2024-02-03T01:07:21.625Z,8.50
2024-02-03T01:11:23.495Z,8.50
2024-02-03T01:15:25.711Z,8.60
2024-02-03T01:19:27.837Z,8.60
2024-02-03T01:23:29.839Z,8.60
2024-02-03T01:27:31.830Z,8.70
2024-02-03T01:31:33.867Z,8.60
2024-02-03T01:35:35.717Z,8.60
2024-02-03T01:39:37.688Z,8.60
2024-02-03T01:43:39.629Z,8.60
2024-02-03T01:47:41.753Z,8.60
2024-02-03T01:51:44.042Z,8.60
2024-02-03T01:55:47.979Z,8.60
2024-02-03T01:59:50.203Z,8.60
2024-02-03T02:03:52.999Z,9.10
2024-02-03T02:07:55.101Z,8.60
2024-02-03T02:11:58.076Z,8.60
2024-02-03T02:16:00.312Z,8.70
2024-02-03T02:20:09.554Z,8.60
2024-02-03T02:24:12.364Z,8.60
2024-02-03T02:28:14.522Z,8.70
2024-02-03T02:32:16.467Z,8.80
2024-02-03T02:36:18.566Z,8.60
2024-02-03T02:40:20.648Z,8.70
2024-02-03T02:44:22.572Z,8.60
2024-02-03T02:48:24.693Z,8.60
2024-02-03T02:52:26.790Z,8.60
2024-02-03T02:56:28.640Z,8.70
2024-02-03T03:00:30.751Z,8.60
2024-02-03T03:04:33.116Z,8.70
2024-02-03T03:08:34.990Z,8.60
2024-02-03T03:12:36.985Z,8.60
2024-02-03T03:16:39.023Z,8.60
2024-02-03T03:20:42.480Z,8.50
2024-02-03T03:24:44.575Z,8.60
2024-02-03T03:28:46.461Z,8.60
2024-02-03T03:32:48.406Z,8.60
2024-02-03T03:36:50.511Z,8.60
2024-02-03T03:40:52.444Z,8.70
2024-02-03T03:44:54.277Z,8.70
2024-02-03T03:48:56.472Z,8.70
2024-02-03T03:52:58.519Z,8.70
2024-02-03T03:57:00.365Z,8.70
2024-02-03T04:01:02.531Z,8.60
2024-02-03T04:05:06.173Z,8.70
2024-02-03T04:09:08.114Z,8.80
2024-02-03T04:13:10.026Z,8.80
2024-02-03T04:17:11.973Z,8.30
2024-02-03T04:21:13.939Z,8.80
2024-02-03T04:25:15.932Z,8.50
2024-02-03T04:29:18.089Z,8.80
2024-02-03T04:33:20.097Z,8.80
2024-02-03T04:37:22.001Z,9.00
2024-02-03T04:41:26.624Z,8.90
2024-02-03T04:45:28.570Z,8.80
2024-02-03T04:49:30.469Z,8.80
2024-02-03T04:53:32.367Z,8.80
2024-02-03T04:57:34.265Z,8.90
2024-02-03T05:01:37.823Z,8.80
2024-02-03T05:05:39.861Z,8.80
2024-02-03T05:09:41.991Z,8.80
2024-02-03T05:13:43.893Z,8.90
2024-02-03T05:17:45.866Z,8.80
2024-02-03T05:21:47.798Z,8.90
2024-02-03T05:25:52.641Z,8.80
2024-02-03T05:29:55.717Z,8.90
2024-02-03T05:33:57.733Z,8.80
2024-02-03T05:37:59.613Z,8.90
2024-02-03T05:42:01.490Z,8.80
2024-02-03T05:46:03.410Z,8.90
2024-02-03T05:50:05.820Z,9.00
2024-02-03T05:54:07.719Z,8.90
2024-02-03T05:58:09.590Z,8.90
2024-02-03T06:02:12.279Z,8.80
2024-02-03T06:10:20.488Z,8.80
2024-02-03T06:14:22.707Z,8.70
2024-02-03T06:18:24.716Z,8.70
2024-02-03T06:22:26.570Z,8.70
2024-02-03T06:26:32.450Z,6.60
2024-02-03T06:30:34.301Z,8.70
2024-02-03T06:34:36.464Z,8.70
2024-02-03T06:38:38.483Z,8.70
2024-02-03T06:42:40.398Z,8.70
2024-02-03T06:46:42.287Z,8.70
2024-02-03T06:50:44.193Z,8.70
2024-02-03T06:54:46.109Z,8.70
2024-02-03T06:58:48.521Z,8.70
2024-02-03T07:02:50.368Z,8.80
2024-02-03T07:06:52.427Z,8.80
2024-02-03T07:10:54.309Z,8.80
2024-02-03T07:14:56.208Z,8.80
2024-02-03T07:18:59.121Z,8.80
2024-02-03T07:23:01.085Z,8.80
2024-02-03T07:27:03.925Z,8.80
2024-02-03T07:31:06.840Z,8.80
2024-02-03T07:35:09.350Z,8.80
2024-02-03T07:39:11.424Z,8.80
2024-02-03T07:43:13.308Z,8.80
2024-02-03T07:47:15.212Z,8.80
2024-02-03T07:51:17.085Z,8.80
2024-02-03T07:55:19.025Z,8.80
2024-02-03T07:59:21.103Z,8.90
2024-02-03T08:03:23.066Z,8.80
2024-02-03T08:07:24.993Z,9.00
2024-02-03T08:11:26.882Z,8.80
2024-02-03T08:15:29.481Z,8.90
2024-02-03T08:19:31.501Z,8.90
2024-02-03T08:23:33.561Z,8.90
2024-02-03T08:27:35.471Z,8.90
2024-02-03T08:31:37.346Z,9.00
2024-02-03T08:35:39.289Z,8.90
2024-02-03T08:43:46.097Z,9.00
2024-02-03T08:47:47.979Z,8.90
2024-02-03T08:51:49.926Z,8.90
2024-02-03T08:55:52.191Z,9.00
2024-02-03T08:59:54.209Z,9.00
2024-02-03T09:03:56.127Z,9.00
2024-02-03T09:07:58.173Z,9.00
2024-02-03T09:12:00.003Z,9.00
2024-02-03T09:16:01.920Z,8.90
2024-02-03T09:20:05.486Z,9.00
2024-02-03T09:24:07.690Z,9.00
2024-02-03T09:28:09.789Z,9.00
2024-02-03T09:32:11.736Z,9.10
2024-02-03T09:36:13.683Z,9.10
2024-02-03T09:40:22.091Z,9.10
2024-02-03T09:44:24.301Z,9.20
2024-02-03T09:48:26.328Z,9.10
2024-02-03T09:52:28.320Z,9.30
2024-02-03T09:56:30.229Z,9.30
2024-02-03T10:00:33.384Z,9.30
2024-02-03T10:04:42.518Z,9.40
2024-02-03T10:08:57.412Z,9.40
2024-02-03T10:13:10.187Z,9.50
2024-02-03T10:17:12.098Z,9.50
2024-02-03T10:21:14.043Z,9.50
2024-02-03T10:25:16.907Z,9.50
2024-02-03T10:29:19.972Z,9.60
2024-02-03T10:33:22.385Z,9.70
2024-02-03T10:37:24.651Z,9.90
2024-02-03T10:41:31.379Z,9.90
2024-02-03T10:45:34.060Z,10.00
2024-02-03T10:49:37.478Z,10.00
2024-02-03T10:53:46.820Z,10.00
2024-02-03T10:57:50.478Z,10.00
2024-02-03T11:01:52.445Z,10.00
2024-02-03T11:05:54.691Z,10.10
2024-02-03T11:10:00.739Z,10.10
2024-02-03T11:14:03.614Z,9.40
2024-02-03T11:18:08.089Z,10.10
2024-02-03T11:22:10.002Z,10.10
2024-02-03T11:26:11.880Z,10.20
2024-02-03T11:30:17.035Z,10.20
2024-02-03T11:34:26.661Z,10.20
2024-02-03T11:38:28.647Z,10.20
2024-02-03T11:42:30.567Z,10.10
2024-02-03T11:46:32.542Z,9.90
2024-02-03T11:50:34.475Z,10.00
2024-02-03T11:54:36.460Z,9.90
2024-02-03T11:58:41.510Z,9.90
2024-02-03T12:02:43.429Z,9.80
2024-02-03T12:06:45.524Z,9.70
2024-02-03T12:10:47.394Z,9.60
2024-02-03T12:14:49.341Z,9.50
2024-02-03T12:18:52.632Z,9.50
2024-02-03T12:22:56.978Z,9.40
2024-02-03T12:27:00.425Z,9.40
2024-02-03T12:31:02.702Z,9.40
2024-02-03T12:35:05.264Z,9.30
2024-02-03T12:39:07.255Z,9.40
2024-02-03T12:43:09.222Z,9.40
2024-02-03T12:47:11.027Z,9.40
2024-02-03T12:51:13.133Z,9.40
2024-02-03T12:55:15.008Z,9.30
2024-02-03T12:59:16.870Z,9.40
2024-02-03T13:03:18.937Z,9.40
2024-02-03T13:07:20.830Z,9.40
2024-02-03T13:11:23.367Z,9.40
2024-02-03T13:15:25.318Z,9.40
2024-02-03T13:19:27.297Z,9.40
2024-02-03T13:23:29.146Z,9.50
2024-02-03T13:27:31.465Z,9.50
2024-02-03T13:31:33.462Z,9.50
2024-02-03T13:35:35.552Z,9.50
2024-02-03T13:39:39.076Z,9.60
2024-02-03T13:43:41.040Z,9.50
2024-02-03T13:47:43.084Z,10.40
2024-02-03T13:51:46.267Z,9.50
2024-02-03T13:55:48.413Z,10.00
2024-02-03T13:59:50.243Z,9.40
2024-02-03T14:03:52.989Z,9.40
2024-02-03T14:07:54.974Z,9.30
2024-02-03T14:11:57.120Z,9.20
2024-02-03T14:15:59.031Z,9.20
2024-02-03T14:20:01.042Z,9.20
2024-02-03T14:24:02.929Z,9.10
2024-02-03T14:28:06.287Z,9.10
2024-02-03T14:32:08.362Z,9.00
2024-02-03T14:36:10.298Z,9.00
2024-02-03T14:40:13.017Z,9.00
2024-02-03T14:44:15.482Z,8.90
2024-02-03T14:48:17.732Z,9.00
2024-02-03T14:52:19.908Z,8.90
2024-02-03T14:56:21.828Z,8.90
2024-02-03T15:00:24.515Z,8.80
2024-02-03T15:04:26.511Z,8.80
